Time;durP1;ratioP1;P1;durP2;ratioP2;P2;SDS_P1;SDS_P2;PMS_P1;PMS_P2;Temp;Humidity;BMP_temperature;BMP_pressure;BME280_temperature;BME280_humidity;BME280_pressure;Samples;Min_cycle;Max_cycle;Signal;HPM_P1;HPM_P2
2022/10/29 00:00:28;;;;;;;;;;;;;;;;;;5073678;28;19920;-90
2022/10/29 00:02:54;;;;;;;;;;;;;;;;;;5073655;28;19916;-86
2022/10/29 00:05:19;;;;;;;;;;;;;;;;;;5072490;28;19920;-88
2022/10/29 00:07:44;;;;;;;;;;;;;;;;;;5073835;28;19956;-87
2022/10/29 00:10:10;;;;;;;;;;;;;;;;;;5072373;28;19922;-89
2022/10/29 00:12:35;;;;;;;;;;;;;;;;;;5077122;28;19999;-88
2022/10/29 00:15:01;;;;;;;;;;;;;;;;;;5077500;28;20015;-86
2022/10/29 00:17:27;;;;;;;;;;;;;;;;;;5077406;28;19912;-86
2022/10/29 00:19:52;;;;;;;;;;;;;;;;;;5077447;28;20015;-86
2022/10/29 00:22:17;;;;;;;;;;;;;;;;;;5077264;28;19939;-85
2022/10/29 00:24:43;;;;;;;;;;;;;;;;;;5077236;28;19965;-89
2022/10/29 00:27:08;;;;;;;;;;;;;;;;;;5077118;28;19920;-86
2022/10/29 00:29:34;;;;;;;;;;;;;;;;;;5077099;28;19923;-85
2022/10/29 00:31:59;;;;;;;;;;;;;;;;;;5076856;28;19974;-86
2022/10/29 00:34:24;;;;;;;;;;;;;;;;;;5077004;28;19978;-87
2022/10/29 00:36:50;;;;;;;;;;;;;;;;;;5076950;28;19912;-86
2022/10/29 00:39:15;;;;;;;;;;;;;;;;;;5075679;28;19985;-84
2022/10/29 00:41:41;;;;;;;;;;;;;;;;;;5076856;28;19920;-86
2022/10/29 00:44:22;;;;;;;;;;;;;;;;;;5075560;28;19961;-88
2022/10/29 00:47:10;;;;;;;;;;;;;;;;;;5076735;28;19924;-89
2022/10/29 00:49:37;;;;;;;;;;;;;;;;;;5073615;28;19917;-88
2022/10/29 00:52:04;;;;;;;;;;;;;;;;;;5076723;28;20364;-89
2022/10/29 00:54:30;;;;;;;;;;;;;;;;;;5076639;28;19925;-89
2022/10/29 00:56:58;;;;;;;;;;;;;;;;;;5076635;28;20387;-88
2022/10/29 00:59:23;;;;;;;;;;;;;;;;;;5076754;28;20061;-90
2022/10/29 01:01:49;;;;;;;;;;;;;;;;;;5076717;28;19960;-89
2022/10/29 01:04:16;;;;;;;;;;;;;;;;;;5076623;28;19917;-89
2022/10/29 01:06:42;;;;;;;;;;;;;;;;;;5076321;28;20013;-89
2022/10/29 01:09:08;;;;;;;;;;;;;;;;;;5075182;28;19916;-89
2022/10/29 01:11:45;;;;;;;;;;;;;;;;;;5076257;28;20291;-90
2022/10/29 01:14:14;;;;;;;;;;;;;;;;;;5076351;28;19916;-89
2022/10/29 01:16:46;;;;;;;;;;;;;;;;;;5076298;28;20003;-88
2022/10/29 01:19:24;;;;;;;;;;;;;;;;;;5076281;28;19916;-88
2022/10/29 01:22:00;;;;;;;;;;;;;;;;;;5075928;28;19923;-89
2022/10/29 01:24:37;;;;;;;;;;;;;;;;;;5075880;28;20364;-88
2022/10/29 01:27:24;;;;;;;;;;;;;;;;;;5076131;28;19917;-89
2022/10/29 01:29:52;;;;;;;;;;;;;;;;;;5076268;28;20011;-89
2022/10/29 01:32:23;;;;;;;;;;;;;;;;;;5074522;28;20380;-89
2022/10/29 01:35:07;;;;;;;;;;;;;;;;;;5076116;28;19960;-89
2022/10/29 01:37:42;;;;;;;;;;;;;;;;;;5074572;28;19916;-88
2022/10/29 01:40:30;;;;;;;;;;;;;;;;;;5075913;28;19939;-89
2022/10/29 01:43:16;;;;;;;;;;;;;;;;;;5075808;28;19962;-89
2022/10/29 01:46:08;;;;;;;;;;;;;;;;;;5075861;28;19921;-87
2022/10/29 01:48:36;;;;;;;;;;;;;;;;;;5074515;28;20373;-88
2022/10/29 01:51:06;;;;;;;;;;;;;;;;;;5075646;28;19916;-88
2022/10/29 01:53:33;;;;;;;;;;;;;;;;;;5075637;28;19917;-89
2022/10/29 01:55:59;;;;;;;;;;;;;;;;;;5075625;28;19921;-88
2022/10/29 01:58:24;;;;;;;;;;;;;;;;;;5074192;28;19916;-88
2022/10/29 02:00:59;;;;;;;;;;;;;;;;;;5075533;28;20364;-89
2022/10/29 02:03:48;;;;;;;;;;;;;;;;;;5075478;28;19924;-87
2022/10/29 02:06:34;;;;;;;;;;;;;;;;;;5082922;28;19962;-87
2022/10/29 02:09:14;;;;;;;;;;;;;;;;;;5076947;28;19921;-82
2022/10/29 02:11:57;;;;;;;;;;;;;;;;;;5105015;28;19912;-84
2022/10/29 02:14:27;;;;;;;;;;;;;;;;;;5111028;28;19908;-83
2022/10/29 02:16:53;;;;;;;;;;;;;;;;;;5105360;28;19920;-88
2022/10/29 02:19:18;;;;;;;;;;;;;;;;;;5075898;28;19916;-87
2022/10/29 02:21:44;;;;;;;;;;;;;;;;;;5108115;28;19966;-84
2022/10/29 02:24:09;;;;;;;;;;;;;;;;;;5107789;28;19916;-88
2022/10/29 02:26:35;;;;;;;;;;;;;;;;;;5074939;28;19951;-88
2022/10/29 02:29:01;;;;;;;;;;;;;;;;;;5075133;28;20329;-88
2022/10/29 02:31:26;;;;;;;;;;;;;;;;;;5074732;28;20334;-88
2022/10/29 02:33:52;;;;;;;;;;;;;;;;;;5074594;28;19921;-90
2022/10/29 02:36:17;;;;;;;;;;;;;;;;;;5074818;28;19916;-91
2022/10/29 02:38:43;;;;;;;;;;;;;;;;;;5074782;28;19928;-89
2022/10/29 02:41:08;;;;;;;;;;;;;;;;;;5107306;28;19920;-90
2022/10/29 02:43:33;;;;;;;;;;;;;;;;;;5074612;28;19916;-90
2022/10/29 02:46:12;;;;;;;;;;;;;;;;;;5107120;28;19916;-88
2022/10/29 02:48:38;;;;;;;;;;;;;;;;;;5074876;28;20279;-90
2022/10/29 02:51:03;;;;;;;;;;;;;;;;;;5074447;28;19922;-89
2022/10/29 02:53:28;;;;;;;;;;;;;;;;;;5107032;28;19920;-86
2022/10/29 02:55:54;;;;;;;;;;;;;;;;;;5074674;28;20011;-88
2022/10/29 02:58:19;;;;;;;;;;;;;;;;;;5074300;28;20014;-90
2022/10/29 03:00:48;;;;;;;;;;;;;;;;;;5074449;28;20004;-87
2022/10/29 03:03:13;;;;;;;;;;;;;;;;;;5106914;28;19920;-88
2022/10/29 03:05:39;;;;;;;;;;;;;;;;;;5074214;28;19924;-87
2022/10/29 03:08:04;;;;;;;;;;;;;;;;;;5074156;28;19916;-88
2022/10/29 03:10:29;;;;;;;;;;;;;;;;;;5074185;28;20387;-86
2022/10/29 03:12:57;;;;;;;;;;;;;;;;;;5074000;28;19916;-87
2022/10/29 03:15:22;;;;;;;;;;;;;;;;;;5072942;28;19921;-87
2022/10/29 03:17:48;;;;;;;;;;;;;;;;;;5074023;28;19921;-87
2022/10/29 03:20:13;;;;;;;;;;;;;;;;;;5074100;28;19924;-88
2022/10/29 03:22:38;;;;;;;;;;;;;;;;;;5073937;28;20299;-88
2022/10/29 03:25:04;;;;;;;;;;;;;;;;;;5106486;28;19939;-86
2022/10/29 03:27:29;;;;;;;;;;;;;;;;;;5106287;28;19916;-89
2022/10/29 03:29:55;;;;;;;;;;;;;;;;;;5073814;28;19917;-87
2022/10/29 03:32:20;;;;;;;;;;;;;;;;;;5112432;28;19920;-86
2022/10/29 03:34:45;;;;;;;;;;;;;;;;;;5094119;28;19962;-85
2022/10/29 03:37:11;;;;;;;;;;;;;;;;;;5094153;28;19958;-87
2022/10/29 03:39:36;;;;;;;;;;;;;;;;;;5094084;28;20016;-89
2022/10/29 03:42:02;;;;;;;;;;;;;;;;;;5094264;28;20007;-89
2022/10/29 03:44:28;;;;;;;;;;;;;;;;;;5092864;28;19961;-88
2022/10/29 03:46:53;;;;;;;;;;;;;;;;;;5095495;28;19920;-82
2022/10/29 03:49:19;;;;;;;;;;;;;;;;;;5098168;28;19966;-88
2022/10/29 03:51:44;;;;;;;;;;;;;;;;;;5098170;28;19920;-86
2022/10/29 03:54:10;;;;;;;;;;;;;;;;;;5098149;28;19959;-84
2022/10/29 03:56:35;;;;;;;;;;;;;;;;;;5098078;28;19984;-86
2022/10/29 03:59:00;;;;;;;;;;;;;;;;;;5098145;28;19916;-84
2022/10/29 04:01:26;;;;;;;;;;;;;;;;;;5096780;28;19923;-82
2022/10/29 04:03:51;;;;;;;;;;;;;;;;;;5098048;28;19917;-82
2022/10/29 04:06:17;;;;;;;;;;;;;;;;;;5097852;28;19917;-86
2022/10/29 04:08:42;;;;;;;;;;;;;;;;;;5097503;28;19920;-83
2022/10/29 04:11:09;;;;;;;;;;;;;;;;;;5097824;28;19923;-83
2022/10/29 04:13:35;;;;;;;;;;;;;;;;;;5097706;28;19916;-83
2022/10/29 04:16:00;;;;;;;;;;;;;;;;;;5097775;28;19922;-84
2022/10/29 04:18:26;;;;;;;;;;;;;;;;;;5095791;28;19916;-86
2022/10/29 04:20:52;;;;;;;;;;;;;;;;;;5095999;28;19923;-87
2022/10/29 04:23:18;;;;;;;;;;;;;;;;;;5096512;28;19974;-85
2022/10/29 04:25:52;;;;;;;;;;;;;;;;;;5095671;28;19923;-85
2022/10/29 04:28:18;;;;;;;;;;;;;;;;;;5096226;28;19916;-85
2022/10/29 04:30:43;;;;;;;;;;;;;;;;;;5095839;28;20372;-84
2022/10/29 04:33:08;;;;;;;;;;;;;;;;;;5094288;28;19975;-84
2022/10/29 04:35:34;;;;;;;;;;;;;;;;;;5095781;28;19938;-85
2022/10/29 04:38:06;;;;;;;;;;;;;;;;;;5095558;28;19916;-91
2022/10/29 04:40:31;;;;;;;;;;;;;;;;;;5095734;28;20025;-90
2022/10/29 04:42:57;;;;;;;;;;;;;;;;;;5095598;28;19923;-84
2022/10/29 04:45:22;;;;;;;;;;;;;;;;;;5117457;27;19916;-86
2022/10/29 04:47:47;;;;;;;;;;;;;;;;;;5095074;28;19966;-85
2022/10/29 04:50:13;;;;;;;;;;;;;;;;;;5096332;28;19920;-86
2022/10/29 04:52:38;;;;;;;;;;;;;;;;;;5096275;28;19920;-85
2022/10/29 04:55:04;;;;;;;;;;;;;;;;;;5097070;28;19916;-89
2022/10/29 04:57:29;;;;;;;;;;;;;;;;;;5097018;28;19916;-88
2022/10/29 04:59:55;;;;;;;;;;;;;;;;;;5098310;28;20302;-88
2022/10/29 05:02:20;;;;;;;;;;;;;;;;;;5095671;28;20387;-86
2022/10/29 05:04:45;;;;;;;;;;;;;;;;;;5097028;28;20010;-87
2022/10/29 05:07:11;;;;;;;;;;;;;;;;;;5096708;28;19916;-84
2022/10/29 05:09:36;;;;;;;;;;;;;;;;;;5096704;28;19923;-85
2022/10/29 05:12:02;;;;;;;;;;;;;;;;;;5096596;28;20011;-85
2022/10/29 05:14:27;;;;;;;;;;;;;;;;;;5096696;28;20010;-81
2022/10/29 05:16:52;;;;;;;;;;;;;;;;;;5095198;28;19986;-88
2022/10/29 05:19:18;;;;;;;;;;;;;;;;;;5096525;28;20069;-86
2022/10/29 05:21:43;;;;;;;;;;;;;;;;;;5096345;28;19917;-87
2022/10/29 05:24:09;;;;;;;;;;;;;;;;;;5096323;28;20010;-84
2022/10/29 05:26:34;;;;;;;;;;;;;;;;;;5096253;28;20008;-86
2022/10/29 05:29:00;;;;;;;;;;;;;;;;;;5096153;28;19923;-84
2022/10/29 05:31:25;;;;;;;;;;;;;;;;;;5096234;28;19920;-86
2022/10/29 05:33:50;;;;;;;;;;;;;;;;;;5096210;28;19916;-86
2022/10/29 05:36:16;;;;;;;;;;;;;;;;;;5096205;28;20431;-86
2022/10/29 05:38:41;;;;;;;;;;;;;;;;;;5098533;28;19920;-87
2022/10/29 05:41:07;;;;;;;;;;;;;;;;;;5098779;28;19947;-86
2022/10/29 05:43:32;;;;;;;;;;;;;;;;;;5096314;28;20003;-90
2022/10/29 05:45:58;;;;;;;;;;;;;;;;;;5097395;28;19916;-84
2022/10/29 05:48:23;;;;;;;;;;;;;;;;;;5096219;28;19922;-88
2022/10/29 05:50:48;;;;;;;;;;;;;;;;;;5101637;28;19962;-87
2022/10/29 05:53:14;;;;;;;;;;;;;;;;;;5101173;28;20287;-84
2022/10/29 05:55:40;;;;;;;;;;;;;;;;;;5100111;28;19916;-87
2022/10/29 05:58:06;;;;;;;;;;;;;;;;;;5099331;28;19916;-85
2022/10/29 06:00:33;;;;;;;;;;;;;;;;;;5101070;28;19916;-83
2022/10/29 06:02:59;;;;;;;;;;;;;;;;;;5100996;28;19923;-83
2022/10/29 06:05:24;;;;;;;;;;;;;;;;;;5101574;28;19938;-86
2022/10/29 06:07:56;;;;;;;;;;;;;;;;;;5099348;28;20345;-83
2022/10/29 06:10:22;;;;;;;;;;;;;;;;;;5085320;28;19920;-82
2022/10/29 06:12:48;;;;;;;;;;;;;;;;;;5085258;28;20299;-85
2022/10/29 06:15:13;;;;;;;;;;;;;;;;;;5092975;28;19916;-85
2022/10/29 06:17:40;;;;;;;;;;;;;;;;;;5093469;28;20432;-84
2022/10/29 06:20:06;;;;;;;;;;;;;;;;;;5092125;28;19921;-85
2022/10/29 06:22:32;;;;;;;;;;;;;;;;;;5090969;28;19946;-85
2022/10/29 06:24:57;;;;;;;;;;;;;;;;;;5096800;28;19916;-86
2022/10/29 06:27:22;;;;;;;;;;;;;;;;;;5084157;28;19916;-87
2022/10/29 06:29:48;;;;;;;;;;;;;;;;;;5086360;28;19916;-84
2022/10/29 06:32:13;;;;;;;;;;;;;;;;;;5084383;28;19921;-82
2022/10/29 06:34:39;;;;;;;;;;;;;;;;;;5106320;28;20298;-82
2022/10/29 06:37:04;;;;;;;;;;;;;;;;;;5111359;28;19941;-82
2022/10/29 06:39:29;;;;;;;;;;;;;;;;;;5094717;28;20252;-83
2022/10/29 06:41:55;;;;;;;;;;;;;;;;;;5082278;28;19961;-87
2022/10/29 06:44:20;;;;;;;;;;;;;;;;;;5097527;28;20275;-87
2022/10/29 06:46:46;;;;;;;;;;;;;;;;;;5095538;28;19924;-85
2022/10/29 06:49:11;;;;;;;;;;;;;;;;;;5082228;28;19916;-83
2022/10/29 06:51:36;;;;;;;;;;;;;;;;;;5097689;28;19917;-85
2022/10/29 06:54:02;;;;;;;;;;;;;;;;;;5097945;28;19924;-86
2022/10/29 06:56:27;;;;;;;;;;;;;;;;;;5088651;28;20351;-87
2022/10/29 06:58:53;;;;;;;;;;;;;;;;;;5098277;28;20015;-89
2022/10/29 07:01:18;;;;;;;;;;;;;;;;;;5090554;28;20436;-89
2022/10/29 07:03:44;;;;;;;;;;;;;;;;;;5081811;28;19916;-84
2022/10/29 07:06:09;;;;;;;;;;;;;;;;;;5087515;28;19984;-89
2022/10/29 07:08:35;;;;;;;;;;;;;;;;;;5083955;28;19926;-89
2022/10/29 07:11:01;;;;;;;;;;;;;;;;;;5082524;28;20371;-89
2022/10/29 07:13:27;;;;;;;;;;;;;;;;;;5083583;28;20384;-90
2022/10/29 07:15:52;;;;;;;;;;;;;;;;;;5085814;28;19959;-89
2022/10/29 07:18:18;;;;;;;;;;;;;;;;;;5091331;28;20283;-85
2022/10/29 07:20:44;;;;;;;;;;;;;;;;;;5088931;28;19920;-88
2022/10/29 07:23:10;;;;;;;;;;;;;;;;;;5105593;28;19919;-87
2022/10/29 07:25:36;;;;;;;;;;;;;;;;;;5113488;28;19916;-88
2022/10/29 07:28:02;;;;;;;;;;;;;;;;;;5111935;28;20372;-89
2022/10/29 07:30:28;;;;;;;;;;;;;;;;;;5113760;28;19915;-88
2022/10/29 07:32:53;;;;;;;;;;;;;;;;;;5113029;28;19919;-87
2022/10/29 07:35:18;;;;;;;;;;;;;;;;;;5114549;28;20282;-87
2022/10/29 07:37:44;;;;;;;;;;;;;;;;;;5114499;28;19915;-87
2022/10/29 07:40:09;;;;;;;;;;;;;;;;;;5114437;28;19920;-88
2022/10/29 07:42:35;;;;;;;;;;;;;;;;;;5113249;28;20375;-88
2022/10/29 07:45:00;;;;;;;;;;;;;;;;;;5114560;28;20366;-87
2022/10/29 07:47:25;;;;;;;;;;;;;;;;;;5114420;28;20375;-86
2022/10/29 07:49:51;;;;;;;;;;;;;;;;;;5113115;28;19959;-85
2022/10/29 07:52:16;;;;;;;;;;;;;;;;;;5114189;28;19916;-87
2022/10/29 07:54:42;;;;;;;;;;;;;;;;;;5114256;28;20299;-87
2022/10/29 07:57:07;;;;;;;;;;;;;;;;;;5114384;28;19916;-87
2022/10/29 07:59:32;;;;;;;;;;;;;;;;;;5114168;28;20442;-86
2022/10/29 08:01:58;;;;;;;;;;;;;;;;;;5114220;28;20383;-87
2022/10/29 08:04:23;;;;;;;;;;;;;;;;;;5114085;28;20006;-85
2022/10/29 08:06:49;;;;;;;;;;;;;;;;;;5112741;28;19974;-87
2022/10/29 08:09:14;;;;;;;;;;;;;;;;;;5114083;28;19968;-85
2022/10/29 08:11:40;;;;;;;;;;;;;;;;;;5112722;28;19915;-86
2022/10/29 08:14:05;;;;;;;;;;;;;;;;;;5114045;28;19922;-87
2022/10/29 08:16:31;;;;;;;;;;;;;;;;;;5112798;28;19977;-87
2022/10/29 08:18:56;;;;;;;;;;;;;;;;;;5113983;28;20439;-85
2022/10/29 08:21:22;;;;;;;;;;;;;;;;;;5114048;28;19919;-87
2022/10/29 08:23:47;;;;;;;;;;;;;;;;;;5116752;28;20248;-87
2022/10/29 08:26:13;;;;;;;;;;;;;;;;;;5093134;28;19920;-86
2022/10/29 08:28:38;;;;;;;;;;;;;;;;;;5092919;28;19924;-86
2022/10/29 08:31:04;;;;;;;;;;;;;;;;;;5092059;28;19922;-86
2022/10/29 08:33:29;;;;;;;;;;;;;;;;;;5095659;28;19967;-86
2022/10/29 08:35:55;;;;;;;;;;;;;;;;;;5095808;28;19920;-87
2022/10/29 08:38:23;;;;;;;;;;;;;;;;;;5095941;28;19951;-85
2022/10/29 08:41:07;;;;;;;;;;;;;;;;;;5094966;28;19995;-86
2022/10/29 08:43:43;;;;;;;;;;;;;;;;;;5095634;28;20367;-86
2022/10/29 08:46:16;;;;;;;;;;;;;;;;;;5096134;28;20556;-86
2022/10/29 08:49:07;;;;;;;;;;;;;;;;;;5096157;28;19967;-86
2022/10/29 08:51:35;;;;;;;;;;;;;;;;;;5087186;28;19920;-87
2022/10/29 08:54:01;;;;;;;;;;;;;;;;;;5096104;28;19920;-85
2022/10/29 08:56:34;;;;;;;;;;;;;;;;;;5095961;28;19912;-86
2022/10/29 08:59:06;;;;;;;;;;;;;;;;;;5095918;28;19920;-87
2022/10/29 09:01:31;;;;;;;;;;;;;;;;;;5095436;28;19974;-86
2022/10/29 09:03:57;;;;;;;;;;;;;;;;;;5095800;28;20371;-86
2022/10/29 09:06:41;;;;;;;;;;;;;;;;;;5095712;28;19916;-86
2022/10/29 09:09:20;;;;;;;;;;;;;;;;;;5095795;28;19916;-87
2022/10/29 09:12:00;;;;;;;;;;;;;;;;;;5095725;28;19923;-86
2022/10/29 09:14:39;;;;;;;;;;;;;;;;;;5095770;28;19951;-85
2022/10/29 09:17:23;;;;;;;;;;;;;;;;;;5095362;28;19916;-86
2022/10/29 09:19:59;;;;;;;;;;;;;;;;;;5094456;28;19927;-85
2022/10/29 09:22:28;;;;;;;;;;;;;;;;;;5095642;28;19920;-85
2022/10/29 09:25:05;;;;;;;;;;;;;;;;;;5095359;28;20390;-85
2022/10/29 09:27:36;;;;;;;;;;;;;;;;;;5095274;28;19916;-86
2022/10/29 09:30:02;;;;;;;;;;;;;;;;;;5095337;28;20279;-87
2022/10/29 09:32:32;;;;;;;;;;;;;;;;;;5095116;28;19920;-85
2022/10/29 09:35:06;;;;;;;;;;;;;;;;;;5093991;28;19916;-86
2022/10/29 09:37:39;;;;;;;;;;;;;;;;;;5094971;28;20378;-86
2022/10/29 09:40:12;;;;;;;;;;;;;;;;;;5094450;28;19920;-86
2022/10/29 09:42:39;;;;;;;;;;;;;;;;;;5095447;28;19916;-87
2022/10/29 09:45:08;;;;;;;;;;;;;;;;;;5093500;28;19927;-87
2022/10/29 09:47:45;;;;;;;;;;;;;;;;;;5094127;28;19976;-87
2022/10/29 09:50:11;;;;;;;;;;;;;;;;;;5094283;28;20355;-85
2022/10/29 09:52:38;;;;;;;;;;;;;;;;;;5093113;28;19928;-86
2022/10/29 09:55:05;;;;;;;;;;;;;;;;;;5094890;28;19920;-86
2022/10/29 09:57:33;;;;;;;;;;;;;;;;;;5094834;28;19916;-86
2022/10/29 10:00:04;;;;;;;;;;;;;;;;;;5095057;28;19920;-86
2022/10/29 10:02:36;;;;;;;;;;;;;;;;;;5094712;28;19967;-86
2022/10/29 10:05:06;;;;;;;;;;;;;;;;;;5092873;28;19920;-86
2022/10/29 10:07:31;;;;;;;;;;;;;;;;;;5093951;28;20011;-86
2022/10/29 10:10:01;;;;;;;;;;;;;;;;;;5094002;28;20096;-87
2022/10/29 10:12:28;;;;;;;;;;;;;;;;;;5093962;28;19999;-87
2022/10/29 10:15:04;;;;;;;;;;;;;;;;;;5093933;28;20012;-85
2022/10/29 10:17:49;;;;;;;;;;;;;;;;;;5092488;28;19920;-86
2022/10/29 10:20:35;;;;;;;;;;;;;;;;;;5093166;28;21526;-86
2022/10/29 10:23:00;;;;;;;;;;;;;;;;;;5090518;28;19922;-85
2022/10/29 10:25:33;;;;;;;;;;;;;;;;;;5093733;28;19916;-85
2022/10/29 10:28:02;;;;;;;;;;;;;;;;;;5093829;28;19916;-85
2022/10/29 10:30:28;;;;;;;;;;;;;;;;;;5094200;28;19923;-86
2022/10/29 10:32:57;;;;;;;;;;;;;;;;;;5094705;28;19965;-86
2022/10/29 10:35:26;;;;;;;;;;;;;;;;;;5094049;28;19920;-87
2022/10/29 10:37:52;;;;;;;;;;;;;;;;;;5098122;28;19912;-86
2022/10/29 10:40:23;;;;;;;;;;;;;;;;;;5105557;28;19923;-85
2022/10/29 10:42:49;;;;;;;;;;;;;;;;;;5112600;28;19943;-86
2022/10/29 10:45:21;;;;;;;;;;;;;;;;;;5098188;28;19924;-86
2022/10/29 10:47:49;;;;;;;;;;;;;;;;;;5092418;28;19927;-86
2022/10/29 10:50:15;;;;;;;;;;;;;;;;;;5093265;28;20013;-86
2022/10/29 10:52:40;;;;;;;;;;;;;;;;;;5090484;28;19957;-84
2022/10/29 10:55:15;;;;;;;;;;;;;;;;;;5092693;28;19931;-85
2022/10/29 10:57:44;;;;;;;;;;;;;;;;;;5091007;28;20421;-85
2022/10/29 11:00:18;;;;;;;;;;;;;;;;;;5091567;28;20404;-85
2022/10/29 11:02:59;;;;;;;;;;;;;;;;;;5093342;28;20324;-86
2022/10/29 11:05:28;;;;;;;;;;;;;;;;;;5092713;28;19981;-85
2022/10/29 11:08:12;;;;;;;;;;;;;;;;;;5092498;28;19973;-85
2022/10/29 11:11:07;;;;;;;;;;;;;;;;;;5093002;28;20006;-85
2022/10/29 11:13:32;;;;;;;;;;;;;;;;;;5089311;28;19916;-84
2022/10/29 11:16:00;;;;;;;;;;;;;;;;;;5094358;28;19924;-84
2022/10/29 11:18:35;;;;;;;;;;;;;;;;;;5094588;28;20379;-84
2022/10/29 11:21:00;;;;;;;;;;;;;;;;;;5094245;28;19916;-85
2022/10/29 11:23:32;;;;;;;;;;;;;;;;;;5093744;28;19993;-83
2022/10/29 11:26:10;;;;;;;;;;;;;;;;;;5094108;28;20296;-83
2022/10/29 11:28:37;;;;;;;;;;;;;;;;;;5092966;28;19966;-83
2022/10/29 11:31:23;;;;;;;;;;;;;;;;;;5094057;28;19916;-84
2022/10/29 11:34:17;;;;;;;;;;;;;;;;;;5082659;28;19970;-85
2022/10/29 11:36:49;;;;;;;;;;;;;;;;;;5089267;28;19917;-85
2022/10/29 11:39:19;;;;;;;;;;;;;;;;;;5093895;28;20363;-84
2022/10/29 11:41:53;;;;;;;;;;;;;;;;;;5093934;28;19916;-84
2022/10/29 11:44:20;;;;;;;;;;;;;;;;;;5092671;28;19963;-85
2022/10/29 11:47:04;;;;;;;;;;;;;;;;;;5093898;28;19916;-86
2022/10/29 11:49:29;;;;;;;;;;;;;;;;;;5094109;28;19924;-84
2022/10/29 11:52:01;;;;;;;;;;;;;;;;;;5093382;28;19916;-86
2022/10/29 11:54:41;;;;;;;;;;;;;;;;;;5093227;28;20019;-85
2022/10/29 11:57:26;;;;;;;;;;;;;;;;;;5093101;28;19920;-86
2022/10/29 11:59:55;;;;;;;;;;;;;;;;;;5071876;28;19963;-86
2022/10/29 12:02:43;;;;;;;;;;;;;;;;;;5073201;28;19917;-85
2022/10/29 12:05:15;;;;;;;;;;;;;;;;;;5062439;28;20004;-86
2022/10/29 12:07:58;;;;;;;;;;;;;;;;;;5075751;28;19959;-86
2022/10/29 12:10:24;;;;;;;;;;;;;;;;;;5077586;28;19917;-85
2022/10/29 12:12:58;;;;;;;;;;;;;;;;;;5077550;28;19926;-84
2022/10/29 12:15:26;;;;;;;;;;;;;;;;;;5077494;28;19919;-86
2022/10/29 12:17:58;;;;;;;;;;;;;;;;;;5077779;28;20329;-85
2022/10/29 12:20:32;;;;;;;;;;;;;;;;;;5077426;28;19955;-86
2022/10/29 12:23:01;;;;;;;;;;;;;;;;;;5078341;28;19916;-85
2022/10/29 12:25:39;;;;;;;;;;;;;;;;;;5076261;28;20283;-84
2022/10/29 12:28:18;;;;;;;;;;;;;;;;;;5076008;28;19917;-84
2022/10/29 12:30:55;;;;;;;;;;;;;;;;;;5077229;28;19966;-85
2022/10/29 12:33:21;;;;;;;;;;;;;;;;;;5077442;28;19927;-85
2022/10/29 12:35:52;;;;;;;;;;;;;;;;;;5075736;28;20007;-85
2022/10/29 12:38:18;;;;;;;;;;;;;;;;;;5077116;28;20283;-84
2022/10/29 12:40:45;;;;;;;;;;;;;;;;;;5077122;28;19916;-83
2022/10/29 12:43:30;;;;;;;;;;;;;;;;;;5076087;28;20272;-86
2022/10/29 12:45:56;;;;;;;;;;;;;;;;;;5092111;28;19917;-85
2022/10/29 12:48:29;;;;;;;;;;;;;;;;;;5076812;28;19923;-85
2022/10/29 12:50:54;;;;;;;;;;;;;;;;;;5077209;28;20014;-84
2022/10/29 12:53:20;;;;;;;;;;;;;;;;;;5076765;28;19959;-86
2022/10/29 12:55:45;;;;;;;;;;;;;;;;;;5076734;28;20444;-85
2022/10/29 12:58:29;;;;;;;;;;;;;;;;;;5076634;28;19917;-85
2022/10/29 13:00:54;;;;;;;;;;;;;;;;;;5076910;28;19916;-84
2022/10/29 13:03:57;;;;;;;;;;;;;;;;;;5076903;28;20291;-86
2022/10/29 13:06:40;;;;;;;;;;;;;;;;;;5076682;28;19916;-83
2022/10/29 13:09:24;;;;;;;;;;;;;;;;;;5076533;28;19917;-84
2022/10/29 13:11:52;;;;;;;;;;;;;;;;;;5076493;28;19981;-84
2022/10/29 13:14:21;;;;;;;;;;;;;;;;;;5076381;28;19916;-84
2022/10/29 13:16:51;;;;;;;;;;;;;;;;;;5076329;28;20007;-85
2022/10/29 13:19:21;;;;;;;;;;;;;;;;;;5075001;28;20011;-86
2022/10/29 13:21:56;;;;;;;;;;;;;;;;;;5076718;28;19912;-84
2022/10/29 13:24:22;;;;;;;;;;;;;;;;;;5076505;28;19960;-85
2022/10/29 13:26:53;;;;;;;;;;;;;;;;;;5077619;28;20410;-85
2022/10/29 13:29:37;;;;;;;;;;;;;;;;;;5078376;28;19951;-84
2022/10/29 13:32:04;;;;;;;;;;;;;;;;;;5076033;28;19924;-85
2022/10/29 13:34:48;;;;;;;;;;;;;;;;;;5076047;28;19921;-86
2022/10/29 13:37:34;;;;;;;;;;;;;;;;;;5076055;28;19967;-86
2022/10/29 13:40:18;;;;;;;;;;;;;;;;;;5075764;28;20025;-86
2022/10/29 13:42:44;;;;;;;;;;;;;;;;;;5076029;28;20268;-85
2022/10/29 13:45:12;;;;;;;;;;;;;;;;;;5075768;28;20025;-87
2022/10/29 13:47:39;;;;;;;;;;;;;;;;;;5075635;28;20074;-86
2022/10/29 13:50:06;;;;;;;;;;;;;;;;;;5075679;28;20375;-84
2022/10/29 13:52:36;;;;;;;;;;;;;;;;;;5075693;28;19971;-86
2022/10/29 13:55:06;;;;;;;;;;;;;;;;;;5075669;28;19917;-85
2022/10/29 13:57:41;;;;;;;;;;;;;;;;;;5074614;28;20007;-84
2022/10/29 14:00:17;;;;;;;;;;;;;;;;;;5075596;28;19960;-86
2022/10/29 14:02:43;;;;;;;;;;;;;;;;;;5075872;28;19978;-85
2022/10/29 14:05:14;;;;;;;;;;;;;;;;;;5075482;28;20387;-86
2022/10/29 14:07:58;;;;;;;;;;;;;;;;;;5075250;28;19920;-85
2022/10/29 14:10:25;;;;;;;;;;;;;;;;;;5074029;28;20362;-85
2022/10/29 14:12:54;;;;;;;;;;;;;;;;;;5075378;28;19970;-85
2022/10/29 14:15:19;;;;;;;;;;;;;;;;;;5075254;28;19920;-85
2022/10/29 14:17:45;;;;;;;;;;;;;;;;;;5107777;28;19916;-87
2022/10/29 14:20:19;;;;;;;;;;;;;;;;;;5073857;28;19916;-86
2022/10/29 14:22:45;;;;;;;;;;;;;;;;;;5075011;28;19978;-86
2022/10/29 14:25:28;;;;;;;;;;;;;;;;;;5075038;28;19920;-86
2022/10/29 14:28:12;;;;;;;;;;;;;;;;;;5074933;28;19916;-87
2022/10/29 14:30:38;;;;;;;;;;;;;;;;;;5074878;28;19924;-86
2022/10/29 14:33:24;;;;;;;;;;;;;;;;;;5080280;28;19921;-86
2022/10/29 14:35:50;;;;;;;;;;;;;;;;;;5086278;28;19920;-83
2022/10/29 14:38:16;;;;;;;;;;;;;;;;;;5102782;28;19951;-84
2022/10/29 14:40:43;;;;;;;;;;;;;;;;;;5104492;28;19926;-86
2022/10/29 14:43:20;;;;;;;;;;;;;;;;;;5087223;28;20016;-85
2022/10/29 14:45:46;;;;;;;;;;;;;;;;;;5075347;28;19939;-85
2022/10/29 14:48:14;;;;;;;;;;;;;;;;;;5075534;28;20299;-86
2022/10/29 14:50:43;;;;;;;;;;;;;;;;;;5091823;28;19966;-86
2022/10/29 14:53:19;;;;;;;;;;;;;;;;;;5074828;28;19912;-86
2022/10/29 14:55:46;;;;;;;;;;;;;;;;;;5074886;28;19916;-85
2022/10/29 14:58:12;;;;;;;;;;;;;;;;;;5074565;28;19935;-86
2022/10/29 15:00:38;;;;;;;;;;;;;;;;;;5077630;28;20383;-87
2022/10/29 15:03:05;;;;;;;;;;;;;;;;;;5078801;28;20359;-85
2022/10/29 15:05:32;;;;;;;;;;;;;;;;;;5078374;28;19942;-85
2022/10/29 15:08:03;;;;;;;;;;;;;;;;;;5078767;28;19932;-86
2022/10/29 15:10:31;;;;;;;;;;;;;;;;;;5081089;28;20288;-86
2022/10/29 15:12:57;;;;;;;;;;;;;;;;;;5091160;28;19911;-87
2022/10/29 15:15:24;;;;;;;;;;;;;;;;;;5086112;28;19921;-87
2022/10/29 15:17:56;;;;;;;;;;;;;;;;;;5084892;28;19970;-87
2022/10/29 15:20:24;;;;;;;;;;;;;;;;;;5102931;28;19928;-87
2022/10/29 15:22:54;;;;;;;;;;;;;;;;;;5080796;28;20014;-88
2022/10/29 15:25:22;;;;;;;;;;;;;;;;;;5081849;28;20431;-86
2022/10/29 15:27:48;;;;;;;;;;;;;;;;;;5093258;28;19991;-86
2022/10/29 15:30:18;;;;;;;;;;;;;;;;;;5080293;28;20333;-84
2022/10/29 15:32:43;;;;;;;;;;;;;;;;;;5082138;28;19927;-89
2022/10/29 15:35:09;;;;;;;;;;;;;;;;;;5080159;28;19924;-88
2022/10/29 15:37:42;;;;;;;;;;;;;;;;;;5080231;28;19923;-87
2022/10/29 15:40:11;;;;;;;;;;;;;;;;;;5081062;28;20268;-87
2022/10/29 15:42:37;;;;;;;;;;;;;;;;;;5079902;28;20391;-87
2022/10/29 15:45:11;;;;;;;;;;;;;;;;;;5081850;28;20011;-88
2022/10/29 15:47:38;;;;;;;;;;;;;;;;;;5085173;28;19926;-87
2022/10/29 15:50:04;;;;;;;;;;;;;;;;;;5083907;28;19950;-88
2022/10/29 15:52:31;;;;;;;;;;;;;;;;;;5081699;28;19928;-87
2022/10/29 15:54:58;;;;;;;;;;;;;;;;;;5085413;28;20372;-89
2022/10/29 15:57:24;;;;;;;;;;;;;;;;;;5080870;28;20426;-87
2022/10/29 15:59:54;;;;;;;;;;;;;;;;;;5085150;28;19969;-86
2022/10/29 16:02:19;;;;;;;;;;;;;;;;;;5074958;28;19932;-87
2022/10/29 16:04:44;;;;;;;;;;;;;;;;;;5076650;28;19920;-87
2022/10/29 16:07:14;;;;;;;;;;;;;;;;;;5081662;28;19969;-88
2022/10/29 16:09:42;;;;;;;;;;;;;;;;;;5088908;28;20356;-86
2022/10/29 16:12:09;;;;;;;;;;;;;;;;;;5092532;28;19916;-85
2022/10/29 16:14:35;;;;;;;;;;;;;;;;;;5092753;28;19923;-86
2022/10/29 16:17:00;;;;;;;;;;;;;;;;;;5080946;28;19920;-84
2022/10/29 16:19:25;;;;;;;;;;;;;;;;;;5081086;28;19920;-85
2022/10/29 16:21:51;;;;;;;;;;;;;;;;;;5087156;28;19955;-84
2022/10/29 16:24:16;;;;;;;;;;;;;;;;;;5083709;28;19920;-85
2022/10/29 16:26:42;;;;;;;;;;;;;;;;;;5085272;28;20411;-85
2022/10/29 16:29:07;;;;;;;;;;;;;;;;;;5085956;28;19942;-86
2022/10/29 16:31:33;;;;;;;;;;;;;;;;;;5084709;28;19920;-87
2022/10/29 16:34:00;;;;;;;;;;;;;;;;;;5083722;28;19920;-85
2022/10/29 16:36:25;;;;;;;;;;;;;;;;;;5091299;28;20364;-85
2022/10/29 16:38:51;;;;;;;;;;;;;;;;;;5083686;28;19920;-85
2022/10/29 16:41:17;;;;;;;;;;;;;;;;;;5087080;28;19927;-86
2022/10/29 16:43:42;;;;;;;;;;;;;;;;;;5085145;28;20280;-86
2022/10/29 16:46:08;;;;;;;;;;;;;;;;;;5080534;28;19916;-84
2022/10/29 16:48:35;;;;;;;;;;;;;;;;;;5082482;28;19921;-85
2022/10/29 16:51:00;;;;;;;;;;;;;;;;;;5079952;28;19917;-85
2022/10/29 16:53:25;;;;;;;;;;;;;;;;;;5079648;28;19916;-85
2022/10/29 16:55:51;;;;;;;;;;;;;;;;;;5088248;28;19920;-84
2022/10/29 16:58:16;;;;;;;;;;;;;;;;;;5085728;28;19920;-84